sensor_id;sensor_type;location;lat;lon;timestamp;pressure;altitude;pressure_sealevel;temperature;humidity
70833;BME280;58452;59.418;17.962;2023-04-01T00:01:46;100678.66;;;-3.25;70.16
70833;BME280;58452;59.418;17.962;2023-04-01T00:04:11;100685.38;;;-3.24;70.44
70833;BME280;58452;59.418;17.962;2023-04-01T00:06:36;100682.56;;;-3.16;70.01
70833;BME280;58452;59.418;17.962;2023-04-01T00:09:02;100680.16;;;-3.19;70.28
70833;BME280;58452;59.418;17.962;2023-04-01T00:11:27;100677.13;;;-3.29;70.41
70833;BME280;58452;59.418;17.962;2023-04-01T00:13:53;100689.44;;;-3.20;70.10
70833;BME280;58452;59.418;17.962;2023-04-01T00:16:19;100684.25;;;-3.17;69.81
70833;BME280;58452;59.418;17.962;2023-04-01T00:18:44;100698.03;;;-3.25;70.18
70833;BME280;58452;59.418;17.962;2023-04-01T00:21:12;100700.38;;;-3.21;70.24
70833;BME280;58452;59.418;17.962;2023-04-01T00:23:38;100705.31;;;-3.18;70.24
70833;BME280;58452;59.418;17.962;2023-04-01T00:26:03;100704.66;;;-3.23;70.34
70833;BME280;58452;59.418;17.962;2023-04-01T00:28:29;100708.50;;;-3.13;69.67
70833;BME280;58452;59.418;17.962;2023-04-01T00:30:55;100711.44;;;-3.23;70.16
70833;BME280;58452;59.418;17.962;2023-04-01T00:33:20;100714.22;;;-3.31;70.62
70833;BME280;58452;59.418;17.962;2023-04-01T00:35:46;100713.25;;;-3.27;70.68
70833;BME280;58452;59.418;17.962;2023-04-01T00:38:12;100702.59;;;-3.35;70.42
70833;BME280;58452;59.418;17.962;2023-04-01T00:40:40;100707.22;;;-3.48;71.17
70833;BME280;58452;59.418;17.962;2023-04-01T00:43:18;100707.31;;;-3.49;71.56
70833;BME280;58452;59.418;17.962;2023-04-01T00:45:45;100707.22;;;-3.48;71.53
70833;BME280;58452;59.418;17.962;2023-04-01T00:48:19;100718.56;;;-3.34;71.29
70833;BME280;58452;59.418;17.962;2023-04-01T00:51:23;100705.31;;;-3.41;71.64
70833;BME280;58452;59.418;17.962;2023-04-01T00:53:52;100710.84;;;-3.55;71.73
70833;BME280;58452;59.418;17.962;2023-04-01T00:56:24;100716.94;;;-3.60;72.45
70833;BME280;58452;59.418;17.962;2023-04-01T00:58:56;100708.69;;;-3.65;73.24
70833;BME280;58452;59.418;17.962;2023-04-01T01:01:24;100713.75;;;-3.65;73.12
70833;BME280;58452;59.418;17.962;2023-04-01T01:03:50;100713.69;;;-3.64;72.80
70833;BME280;58452;59.418;17.962;2023-04-01T01:11:42;100729.19;;;-3.74;72.64
70833;BME280;58452;59.418;17.962;2023-04-01T01:14:31;100721.19;;;-3.62;73.19
70833;BME280;58452;59.418;17.962;2023-04-01T01:17:12;100722.34;;;-3.71;73.59
70833;BME280;58452;59.418;17.962;2023-04-01T01:31:12;100717.31;;;-3.71;74.88
70833;BME280;58452;59.418;17.962;2023-04-01T01:36:28;100728.75;;;-3.62;73.91
70833;BME280;58452;59.418;17.962;2023-04-01T01:38:56;100716.03;;;-3.59;74.07
70833;BME280;58452;59.418;17.962;2023-04-01T01:41:23;100717.97;;;-3.66;74.34
70833;BME280;58452;59.418;17.962;2023-04-01T01:43:53;100716.84;;;-3.57;74.47
70833;BME280;58452;59.418;17.962;2023-04-01T01:46:22;100715.28;;;-3.61;74.24
70833;BME280;58452;59.418;17.962;2023-04-01T01:48:49;100727.44;;;-3.72;74.55
70833;BME280;58452;59.418;17.962;2023-04-01T01:51:17;100724.50;;;-3.60;74.56
70833;BME280;58452;59.418;17.962;2023-04-01T01:53:43;100729.97;;;-3.72;74.78
70833;BME280;58452;59.418;17.962;2023-04-01T01:56:10;100732.47;;;-3.72;74.46
70833;BME280;58452;59.418;17.962;2023-04-01T01:58:41;100733.50;;;-3.78;74.77
70833;BME280;58452;59.418;17.962;2023-04-01T02:01:15;100735.03;;;-3.74;74.67
70833;BME280;58452;59.418;17.962;2023-04-01T02:03:43;100728.28;;;-3.97;75.18
70833;BME280;58452;59.418;17.962;2023-04-01T02:06:12;100736.38;;;-3.88;75.39
70833;BME280;58452;59.418;17.962;2023-04-01T02:08:46;100737.94;;;-3.84;75.70
70833;BME280;58452;59.418;17.962;2023-04-01T02:11:14;100738.03;;;-3.87;75.79
70833;BME280;58452;59.418;17.962;2023-04-01T02:18:57;100740.16;;;-3.75;75.71
70833;BME280;58452;59.418;17.962;2023-04-01T02:21:27;100738.03;;;-3.87;76.65
70833;BME280;58452;59.418;17.962;2023-04-01T02:23:56;100742.38;;;-3.92;76.85
70833;BME280;58452;59.418;17.962;2023-04-01T02:26:24;100747.28;;;-3.88;76.36
70833;BME280;58452;59.418;17.962;2023-04-01T02:28:53;100741.53;;;-3.91;76.62
70833;BME280;58452;59.418;17.962;2023-04-01T02:31:19;100743.28;;;-3.93;76.63
70833;BME280;58452;59.418;17.962;2023-04-01T02:33:46;100744.03;;;-3.91;76.98
70833;BME280;58452;59.418;17.962;2023-04-01T02:36:13;100752.66;;;-3.97;76.66
70833;BME280;58452;59.418;17.962;2023-04-01T02:38:40;100748.59;;;-4.03;76.88
70833;BME280;58452;59.418;17.962;2023-04-01T02:41:06;100745.22;;;-4.02;77.39
70833;BME280;58452;59.418;17.962;2023-04-01T02:43:32;100740.66;;;-3.90;76.85
70833;BME280;58452;59.418;17.962;2023-04-01T02:45:57;100737.78;;;-3.80;76.51
70833;BME280;58452;59.418;17.962;2023-04-01T02:48:23;100747.84;;;-4.05;77.09
70833;BME280;58452;59.418;17.962;2023-04-01T02:50:49;100741.72;;;-3.98;76.66
70833;BME280;58452;59.418;17.962;2023-04-01T02:53:14;100734.28;;;-4.01;77.52
70833;BME280;58452;59.418;17.962;2023-04-01T02:55:40;100740.75;;;-3.93;77.35
70833;BME280;58452;59.418;17.962;2023-04-01T02:58:06;100738.44;;;-4.00;77.07
70833;BME280;58452;59.418;17.962;2023-04-01T03:00:31;100734.94;;;-3.96;77.17
70833;BME280;58452;59.418;17.962;2023-04-01T03:02:57;100731.94;;;-4.07;77.58
70833;BME280;58452;59.418;17.962;2023-04-01T03:05:22;100743.31;;;-3.95;77.44
70833;BME280;58452;59.418;17.962;2023-04-01T03:07:48;100738.34;;;-3.97;77.70
70833;BME280;58452;59.418;17.962;2023-04-01T03:10:13;100744.00;;;-3.90;77.21
70833;BME280;58452;59.418;17.962;2023-04-01T03:12:39;100742.97;;;-3.84;77.56
70833;BME280;58452;59.418;17.962;2023-04-01T03:15:05;100743.97;;;-4.15;77.77
70833;BME280;58452;59.418;17.962;2023-04-01T03:17:31;100752.09;;;-4.07;77.74
70833;BME280;58452;59.418;17.962;2023-04-01T03:19:56;100763.94;;;-4.09;78.05
70833;BME280;58452;59.418;17.962;2023-04-01T03:22:22;100765.50;;;-4.05;78.87
70833;BME280;58452;59.418;17.962;2023-04-01T03:24:50;100768.66;;;-4.00;78.13
70833;BME280;58452;59.418;17.962;2023-04-01T03:27:16;100767.03;;;-4.01;78.10
70833;BME280;58452;59.418;17.962;2023-04-01T03:29:41;100768.53;;;-3.95;78.38
70833;BME280;58452;59.418;17.962;2023-04-01T03:32:07;100764.41;;;-3.98;78.01
70833;BME280;58452;59.418;17.962;2023-04-01T03:34:32;100772.09;;;-4.01;78.05
70833;BME280;58452;59.418;17.962;2023-04-01T03:36:58;100774.72;;;-4.04;77.99
70833;BME280;58452;59.418;17.962;2023-04-01T03:39:24;100778.69;;;-3.97;78.24
70833;BME280;58452;59.418;17.962;2023-04-01T03:41:50;100785.16;;;-3.89;78.25
70833;BME280;58452;59.418;17.962;2023-04-01T03:44:15;100777.94;;;-4.00;77.88
70833;BME280;58452;59.418;17.962;2023-04-01T03:46:41;100774.44;;;-3.96;77.77
70833;BME280;58452;59.418;17.962;2023-04-01T03:49:08;100787.72;;;-3.91;77.82
70833;BME280;58452;59.418;17.962;2023-04-01T03:51:41;100791.03;;;-3.89;78.01
70833;BME280;58452;59.418;17.962;2023-04-01T03:54:07;100788.03;;;-4.00;78.23
70833;BME280;58452;59.418;17.962;2023-04-01T03:56:33;100787.38;;;-4.07;77.78
70833;BME280;58452;59.418;17.962;2023-04-01T03:59:02;100793.44;;;-4.12;78.39
70833;BME280;58452;59.418;17.962;2023-04-01T04:01:27;100795.78;;;-4.06;78.20
70833;BME280;58452;59.418;17.962;2023-04-01T04:03:53;100789.03;;;-4.06;78.16
70833;BME280;58452;59.418;17.962;2023-04-01T04:06:19;100797.69;;;-4.14;78.45
70833;BME280;58452;59.418;17.962;2023-04-01T04:08:45;100799.00;;;-4.03;78.38
70833;BME280;58452;59.418;17.962;2023-04-01T04:11:10;100800.94;;;-4.11;78.25
70833;BME280;58452;59.418;17.962;2023-04-01T04:13:36;100810.13;;;-4.08;78.45
70833;BME280;58452;59.418;17.962;2023-04-01T04:16:02;100802.44;;;-4.04;78.34
70833;BME280;58452;59.418;17.962;2023-04-01T04:18:28;100799.94;;;-4.05;78.38
70833;BME280;58452;59.418;17.962;2023-04-01T04:20:54;100797.19;;;-4.25;78.31
70833;BME280;58452;59.418;17.962;2023-04-01T04:23:19;100808.44;;;-4.08;78.85
70833;BME280;58452;59.418;17.962;2023-04-01T04:25:59;100806.47;;;-4.26;78.87
70833;BME280;58452;59.418;17.962;2023-04-01T04:28:26;100806.19;;;-4.17;78.69
70833;BME280;58452;59.418;17.962;2023-04-01T04:30:52;100813.50;;;-4.09;78.73
70833;BME280;58452;59.418;17.962;2023-04-01T04:33:18;100814.94;;;-4.01;78.49
70833;BME280;58452;59.418;17.962;2023-04-01T04:35:44;100814.88;;;-3.99;78.51
70833;BME280;58452;59.418;17.962;2023-04-01T04:38:10;100820.72;;;-3.99;78.28
70833;BME280;58452;59.418;17.962;2023-04-01T04:40:39;100822.09;;;-4.15;78.63
70833;BME280;58452;59.418;17.962;2023-04-01T04:43:05;100828.00;;;-4.16;79.39
70833;BME280;58452;59.418;17.962;2023-04-01T04:45:31;100828.50;;;-4.05;79.25
70833;BME280;58452;59.418;17.962;2023-04-01T04:47:57;100824.41;;;-4.09;78.99
70833;BME280;58452;59.418;17.962;2023-04-01T04:50:23;100833.63;;;-4.08;79.64
70833;BME280;58452;59.418;17.962;2023-04-01T04:52:50;100844.22;;;-3.97;79.65
70833;BME280;58452;59.418;17.962;2023-04-01T04:55:16;100833.44;;;-4.02;79.45
70833;BME280;58452;59.418;17.962;2023-04-01T04:57:41;100843.38;;;-3.97;79.56
70833;BME280;58452;59.418;17.962;2023-04-01T05:00:08;100847.84;;;-4.07;79.49
70833;BME280;58452;59.418;17.962;2023-04-01T05:02:35;100842.09;;;-4.10;80.35
70833;BME280;58452;59.418;17.962;2023-04-01T05:05:00;100854.16;;;-4.20;80.61
70833;BME280;58452;59.418;17.962;2023-04-01T05:07:26;100852.03;;;-4.06;81.00
70833;BME280;58452;59.418;17.962;2023-04-01T05:09:51;100856.03;;;-3.99;80.44
70833;BME280;58452;59.418;17.962;2023-04-01T05:12:17;100856.59;;;-3.89;80.35
70833;BME280;58452;59.418;17.962;2023-04-01T05:14:42;100855.75;;;-3.89;79.88
70833;BME280;58452;59.418;17.962;2023-04-01T05:17:09;100860.31;;;-3.74;79.66
70833;BME280;58452;59.418;17.962;2023-04-01T05:19:35;100870.41;;;-3.74;79.76
70833;BME280;58452;59.418;17.962;2023-04-01T05:22:01;100870.94;;;-3.65;79.54
70833;BME280;58452;59.418;17.962;2023-04-01T05:32:12;100890.84;;;-3.57;79.43
70833;BME280;58452;59.418;17.962;2023-04-01T05:34:37;100894.09;;;-3.54;79.64
70833;BME280;58452;59.418;17.962;2023-04-01T05:37:03;100895.56;;;-3.47;79.50
70833;BME280;58452;59.418;17.962;2023-04-01T05:39:28;100896.75;;;-3.32;79.57
70833;BME280;58452;59.418;17.962;2023-04-01T05:41:54;100903.25;;;-3.25;78.89
70833;BME280;58452;59.418;17.962;2023-04-01T05:44:19;100904.13;;;-3.26;78.49
70833;BME280;58452;59.418;17.962;2023-04-01T05:46:45;100913.81;;;-3.14;78.51
70833;BME280;58452;59.418;17.962;2023-04-01T05:49:10;100913.31;;;-2.99;78.29
70833;BME280;58452;59.418;17.962;2023-04-01T05:51:36;100909.63;;;-3.15;77.83
70833;BME280;58452;59.418;17.962;2023-04-01T05:54:01;100907.66;;;-3.05;77.94
70833;BME280;58452;59.418;17.962;2023-04-01T05:56:27;100905.38;;;-2.88;77.87
70833;BME280;58452;59.418;17.962;2023-04-01T05:58:53;100904.53;;;-2.88;77.42
70833;BME280;58452;59.418;17.962;2023-04-01T06:01:19;100908.13;;;-2.71;77.39
70833;BME280;58452;59.418;17.962;2023-04-01T06:03:46;100912.88;;;-2.62;76.99
70833;BME280;58452;59.418;17.962;2023-04-01T06:06:24;100913.47;;;-2.55;76.95
70833;BME280;58452;59.418;17.962;2023-04-01T06:08:51;100918.28;;;-2.49;77.05
70833;BME280;58452;59.418;17.962;2023-04-01T06:11:26;100909.84;;;-2.48;76.19
70833;BME280;58452;59.418;17.962;2023-04-01T06:14:10;100907.63;;;-2.34;76.52
70833;BME280;58452;59.418;17.962;2023-04-01T06:19:27;100910.38;;;-2.17;75.65
70833;BME280;58452;59.418;17.962;2023-04-01T06:22:22;100908.94;;;-2.24;75.92
70833;BME280;58452;59.418;17.962;2023-04-01T06:25:01;100907.19;;;-2.22;76.20
70833;BME280;58452;59.418;17.962;2023-04-01T06:28:06;100913.22;;;-2.03;75.79
70833;BME280;58452;59.418;17.962;2023-04-01T06:30:43;100914.50;;;-1.92;75.26
70833;BME280;58452;59.418;17.962;2023-04-01T06:54:30;100947.66;;;-1.35;73.99
70833;BME280;58452;59.418;17.962;2023-04-01T06:57:02;100949.19;;;-1.31;74.06
70833;BME280;58452;59.418;17.962;2023-04-01T06:59:33;100956.44;;;-1.22;74.53
70833;BME280;58452;59.418;17.962;2023-04-01T07:02:19;100959.84;;;-1.23;74.15
70833;BME280;58452;59.418;17.962;2023-04-01T07:04:50;100961.34;;;-0.99;73.19
70833;BME280;58452;59.418;17.962;2023-04-01T07:07:28;100955.47;;;-0.99;73.31
70833;BME280;58452;59.418;17.962;2023-04-01T07:09:56;100963.00;;;-0.98;73.11
70833;BME280;58452;59.418;17.962;2023-04-01T07:12:48;100962.50;;;-0.85;72.96
70833;BME280;58452;59.418;17.962;2023-04-01T07:15:22;100966.56;;;-0.81;72.78
70833;BME280;58452;59.418;17.962;2023-04-01T07:17:56;100970.50;;;-0.74;72.96
70833;BME280;58452;59.418;17.962;2023-04-01T07:20:27;100972.00;;;-0.70;72.98
70833;BME280;58452;59.418;17.962;2023-04-01T07:22:59;100972.63;;;-0.65;72.91
70833;BME280;58452;59.418;17.962;2023-04-01T07:25:29;100983.25;;;-0.57;72.40
70833;BME280;58452;59.418;17.962;2023-04-01T07:28:01;100981.50;;;-0.55;72.36
70833;BME280;58452;59.418;17.962;2023-04-01T07:30:38;100985.44;;;-0.48;72.37
70833;BME280;58452;59.418;17.962;2023-04-01T07:39:12;100995.25;;;-0.40;72.15
70833;BME280;58452;59.418;17.962;2023-04-01T07:55:28;101007.25;;;0.12;72.64
70833;BME280;58452;59.418;17.962;2023-04-01T08:01:14;101000.13;;;0.39;71.96
70833;BME280;58452;59.418;17.962;2023-04-01T08:06:47;101014.19;;;0.46;72.12
70833;BME280;58452;59.418;17.962;2023-04-01T08:17:01;101014.31;;;0.96;69.61
70833;BME280;58452;59.418;17.962;2023-04-01T08:19:32;101005.75;;;0.98;69.48
70833;BME280;58452;59.418;17.962;2023-04-01T08:22:04;101017.84;;;1.11;69.61
70833;BME280;58452;59.418;17.962;2023-04-01T08:24:43;101017.41;;;1.20;68.43
70833;BME280;58452;59.418;17.962;2023-04-01T08:27:34;101019.13;;;1.19;67.62
70833;BME280;58452;59.418;17.962;2023-04-01T08:30:14;101019.06;;;1.21;67.67
70833;BME280;58452;59.418;17.962;2023-04-01T08:33:29;101021.91;;;1.32;67.30
70833;BME280;58452;59.418;17.962;2023-04-01T08:35:34;101019.50;;;1.46;66.20
70833;BME280;58452;59.418;17.962;2023-04-01T08:38:11;101022.94;;;1.45;65.17
70833;BME280;58452;59.418;17.962;2023-04-01T08:41:00;101020.50;;;1.59;65.38
70833;BME280;58452;59.418;17.962;2023-04-01T08:46:19;101022.81;;;1.64;64.82
70833;BME280;58452;59.418;17.962;2023-04-01T08:56:46;101026.56;;;1.89;61.69
70833;BME280;58452;59.418;17.962;2023-04-01T09:02:39;101038.00;;;2.14;60.73
70833;BME280;58452;59.418;17.962;2023-04-01T09:22:25;101048.31;;;3.05;58.67
70833;BME280;58452;59.418;17.962;2023-04-01T10:00:44;101067.63;;;4.11;53.29
70833;BME280;58452;59.418;17.962;2023-04-01T10:09:27;101066.94;;;4.35;53.32
70833;BME280;58452;59.418;17.962;2023-04-01T10:14:59;101078.63;;;4.39;53.13
70833;BME280;58452;59.418;17.962;2023-04-01T10:20:54;101077.56;;;4.56;52.08
70833;BME280;58452;59.418;17.962;2023-04-01T10:23:39;101078.16;;;4.74;51.89
70833;BME280;58452;59.418;17.962;2023-04-01T10:43:39;101090.66;;;5.32;49.77
70833;BME280;58452;59.418;17.962;2023-04-01T10:56:55;101103.59;;;5.68;47.20
70833;BME280;58452;59.418;17.962;2023-04-01T11:21:55;101111.34;;;6.55;42.79
70833;BME280;58452;59.418;17.962;2023-04-01T11:27:28;101106.09;;;6.57;43.52
70833;BME280;58452;59.418;17.962;2023-04-01T11:33:04;101110.34;;;6.81;40.06
70833;BME280;58452;59.418;17.962;2023-04-01T11:41:22;101116.69;;;6.88;39.40
70833;BME280;58452;59.418;17.962;2023-04-01T12:12:35;101136.25;;;8.29;38.68
70833;BME280;58452;59.418;17.962;2023-04-01T12:33:50;101156.91;;;7.59;38.39
70833;BME280;58452;59.418;17.962;2023-04-01T12:39:59;101172.06;;;7.62;40.67
70833;BME280;58452;59.418;17.962;2023-04-01T12:42:59;101172.59;;;7.90;39.49
70833;BME280;58452;59.418;17.962;2023-04-01T12:45:35;101173.03;;;7.72;40.32
70833;BME280;58452;59.418;17.962;2023-04-01T12:48:57;101179.97;;;7.48;41.75
70833;BME280;58452;59.418;17.962;2023-04-01T13:08:54;101204.16;;;7.92;40.36
70833;BME280;58452;59.418;17.962;2023-04-01T13:14:25;101204.97;;;8.38;38.36
70833;BME280;58452;59.418;17.962;2023-04-01T13:17:18;101214.47;;;8.03;38.13
70833;BME280;58452;59.418;17.962;2023-04-01T13:25:37;101223.53;;;8.30;38.49
70833;BME280;58452;59.418;17.962;2023-04-01T13:28:29;101229.66;;;8.06;38.47
70833;BME280;58452;59.418;17.962;2023-04-01T13:34:08;101249.38;;;8.29;37.34
70833;BME280;58452;59.418;17.962;2023-04-01T13:36:56;101244.69;;;8.34;36.22
70833;BME280;58452;59.418;17.962;2023-04-01T13:44:56;101248.09;;;8.34;37.42
70833;BME280;58452;59.418;17.962;2023-04-01T14:18:47;101275.00;;;8.42;35.69
70833;BME280;58452;59.418;17.962;2023-04-01T14:24:14;101287.97;;;7.81;37.04
70833;BME280;58452;59.418;17.962;2023-04-01T14:40:51;101302.50;;;7.46;35.36
70833;BME280;58452;59.418;17.962;2023-04-01T14:46:17;101314.94;;;7.03;37.49
70833;BME280;58452;59.418;17.962;2023-04-01T14:51:30;101325.28;;;7.02;37.62
70833;BME280;58452;59.418;17.962;2023-04-01T14:54:14;101314.84;;;6.54;38.74
70833;BME280;58452;59.418;17.962;2023-04-01T14:57:11;101325.41;;;6.62;38.20
70833;BME280;58452;59.418;17.962;2023-04-01T14:59:39;101327.94;;;6.37;38.63
70833;BME280;58452;59.418;17.962;2023-04-01T15:04:57;101337.22;;;6.52;38.31
70833;BME280;58452;59.418;17.962;2023-04-01T15:14:04;101348.97;;;6.03;37.94
70833;BME280;58452;59.418;17.962;2023-04-01T15:16:30;101358.44;;;5.88;38.55
70833;BME280;58452;59.418;17.962;2023-04-01T15:38:39;101379.44;;;4.96;39.57
70833;BME280;58452;59.418;17.962;2023-04-01T15:41:17;101395.69;;;4.80;40.94
70833;BME280;58452;59.418;17.962;2023-04-01T15:43:49;101395.16;;;4.30;39.50
70833;BME280;58452;59.418;17.962;2023-04-01T15:51:56;101392.63;;;4.60;41.21
70833;BME280;58452;59.418;17.962;2023-04-01T15:57:49;101396.09;;;5.31;40.32
70833;BME280;58452;59.418;17.962;2023-04-01T16:22:03;101420.03;;;5.02;41.63
70833;BME280;58452;59.418;17.962;2023-04-01T16:29:53;101428.22;;;5.07;42.20
70833;BME280;58452;59.418;17.962;2023-04-01T16:32:36;101434.50;;;5.17;42.15
70833;BME280;58452;59.418;17.962;2023-04-01T16:39:06;101441.19;;;4.89;41.25
70833;BME280;58452;59.418;17.962;2023-04-01T16:41:20;101445.19;;;4.79;43.23
70833;BME280;58452;59.418;17.962;2023-04-01T16:46:29;101454.22;;;4.55;44.49
70833;BME280;58452;59.418;17.962;2023-04-01T16:59:36;101470.28;;;3.63;50.22
70833;BME280;58452;59.418;17.962;2023-04-01T17:04:57;101474.84;;;3.41;51.18
70833;BME280;58452;59.418;17.962;2023-04-01T17:12:43;101497.22;;;3.02;52.58
70833;BME280;58452;59.418;17.962;2023-04-01T17:20:43;101506.38;;;2.71;53.42
70833;BME280;58452;59.418;17.962;2023-04-01T17:26:04;101514.38;;;2.81;53.50
70833;BME280;58452;59.418;17.962;2023-04-01T17:29:06;101523.63;;;2.65;53.95
70833;BME280;58452;59.418;17.962;2023-04-01T17:37:11;101529.81;;;2.05;55.24
70833;BME280;58452;59.418;17.962;2023-04-01T17:47:59;101540.66;;;1.89;55.09
70833;BME280;58452;59.418;17.962;2023-04-01T17:50:58;101560.47;;;1.83;54.85
70833;BME280;58452;59.418;17.962;2023-04-01T18:04:40;101574.28;;;1.37;54.37
70833;BME280;58452;59.418;17.962;2023-04-01T18:07:27;101576.81;;;1.37;55.26
70833;BME280;58452;59.418;17.962;2023-04-01T18:13:08;101582.72;;;1.37;54.92
70833;BME280;58452;59.418;17.962;2023-04-01T18:15:54;101583.88;;;1.30;55.20
70833;BME280;58452;59.418;17.962;2023-04-01T18:24:28;101599.75;;;0.93;55.78
70833;BME280;58452;59.418;17.962;2023-04-01T18:27:06;101606.13;;;1.04;55.88
70833;BME280;58452;59.418;17.962;2023-04-01T18:29:49;101597.63;;;1.05;56.08
70833;BME280;58452;59.418;17.962;2023-04-01T18:38:05;101617.69;;;0.67;57.38
70833;BME280;58452;59.418;17.962;2023-04-01T18:40:40;101619.66;;;0.82;56.77
70833;BME280;58452;59.418;17.962;2023-04-01T18:46:03;101627.03;;;0.88;56.59
70833;BME280;58452;59.418;17.962;2023-04-01T18:51:37;101639.56;;;0.71;57.60
70833;BME280;58452;59.418;17.962;2023-04-01T18:56:49;101643.22;;;0.64;56.99
70833;BME280;58452;59.418;17.962;2023-04-01T18:59:25;101652.09;;;0.53;58.52
70833;BME280;58452;59.418;17.962;2023-04-01T19:04:42;101660.66;;;0.50;57.96
70833;BME280;58452;59.418;17.962;2023-04-01T19:15:59;101676.94;;;0.44;59.00
70833;BME280;58452;59.418;17.962;2023-04-01T19:18:50;101673.34;;;0.50;58.86
70833;BME280;58452;59.418;17.962;2023-04-01T19:21:34;101676.94;;;0.44;59.35
70833;BME280;58452;59.418;17.962;2023-04-01T19:26:59;101679.53;;;0.43;59.56
70833;BME280;58452;59.418;17.962;2023-04-01T19:46:33;101709.59;;;0.06;60.40
70833;BME280;58452;59.418;17.962;2023-04-01T20:00:43;101715.16;;;-0.10;61.83
70833;BME280;58452;59.418;17.962;2023-04-01T20:03:20;101716.09;;;-0.12;62.41
70833;BME280;58452;59.418;17.962;2023-04-01T20:11:12;101724.34;;;-0.32;63.38
70833;BME280;58452;59.418;17.962;2023-04-01T20:16:12;101723.56;;;-0.34;62.46
70833;BME280;58452;59.418;17.962;2023-04-01T20:19:06;101727.75;;;-0.33;62.68
70833;BME280;58452;59.418;17.962;2023-04-01T20:21:42;101734.50;;;-0.32;63.27
70833;BME280;58452;59.418;17.962;2023-04-01T20:26:42;101731.56;;;-0.46;63.28
70833;BME280;58452;59.418;17.962;2023-04-01T20:31:49;101739.06;;;-0.43;64.01
70833;BME280;58452;59.418;17.962;2023-04-01T20:40:27;101751.09;;;-0.50;64.49
70833;BME280;58452;59.418;17.962;2023-04-01T20:51:53;101760.16;;;-0.41;64.20
70833;BME280;58452;59.418;17.962;2023-04-01T20:57:20;101769.72;;;-0.51;64.00
70833;BME280;58452;59.418;17.962;2023-04-01T21:05:31;101774.25;;;-0.60;64.50
70833;BME280;58452;59.418;17.962;2023-04-01T21:08:06;101779.31;;;-0.60;64.52
70833;BME280;58452;59.418;17.962;2023-04-01T21:10:44;101782.69;;;-0.60;64.42
70833;BME280;58452;59.418;17.962;2023-04-01T21:16:31;101794.78;;;-0.69;65.06
70833;BME280;58452;59.418;17.962;2023-04-01T21:22:35;101791.28;;;-0.65;65.12
70833;BME280;58452;59.418;17.962;2023-04-01T21:28:22;101801.50;;;-0.68;65.19
70833;BME280;58452;59.418;17.962;2023-04-01T21:31:04;101796.44;;;-0.68;65.07
70833;BME280;58452;59.418;17.962;2023-04-01T22:12:20;101849.81;;;-1.04;66.83
70833;BME280;58452;59.418;17.962;2023-04-01T22:14:56;101849.63;;;-0.98;66.81
70833;BME280;58452;59.418;17.962;2023-04-01T22:20:20;101848.91;;;-1.03;67.15
70833;BME280;58452;59.418;17.962;2023-04-01T22:23:07;101860.03;;;-1.07;66.96
70833;BME280;58452;59.418;17.962;2023-04-01T22:26:05;101850.91;;;-1.14;67.24
70833;BME280;58452;59.418;17.962;2023-04-01T22:28:40;101862.88;;;-1.19;67.58
70833;BME280;58452;59.418;17.962;2023-04-01T22:31:11;101860.34;;;-1.19;67.32
70833;BME280;58452;59.418;17.962;2023-04-01T22:33:57;101870.31;;;-1.13;67.51
70833;BME280;58452;59.418;17.962;2023-04-01T22:39:19;101875.69;;;-1.25;67.52
70833;BME280;58452;59.418;17.962;2023-04-01T22:55:51;101891.63;;;-1.55;68.55
70833;BME280;58452;59.418;17.962;2023-04-01T22:58:32;101896.38;;;-1.43;68.21
70833;BME280;58452;59.418;17.962;2023-04-01T23:01:03;101894.00;;;-1.49;68.45
70833;BME280;58452;59.418;17.962;2023-04-01T23:03:34;101895.59;;;-1.45;68.17
70833;BME280;58452;59.418;17.962;2023-04-01T23:06:04;101901.44;;;-1.43;67.90
70833;BME280;58452;59.418;17.962;2023-04-01T23:11:07;101903.13;;;-1.42;68.07
70833;BME280;58452;59.418;17.962;2023-04-01T23:13:41;101913.16;;;-1.39;67.75
70833;BME280;58452;59.418;17.962;2023-04-01T23:16:10;101913.41;;;-1.48;68.61
70833;BME280;58452;59.418;17.962;2023-04-01T23:24:38;101916.63;;;-1.43;68.32
70833;BME280;58452;59.418;17.962;2023-04-01T23:26:43;101928.34;;;-1.39;67.86
70833;BME280;58452;59.418;17.962;2023-04-01T23:29:15;101923.53;;;-1.48;68.10
70833;BME280;58452;59.418;17.962;2023-04-01T23:31:43;101930.31;;;-1.50;68.01
70833;BME280;58452;59.418;17.962;2023-04-01T23:36:47;101925.19;;;-1.47;68.18
70833;BME280;58452;59.418;17.962;2023-04-01T23:41:48;101933.41;;;-1.39;67.41
70833;BME280;58452;59.418;17.962;2023-04-01T23:44:15;101928.50;;;-1.45;67.63
70833;BME280;58452;59.418;17.962;2023-04-01T23:46:43;101938.63;;;-1.45;67.40
70833;BME280;58452;59.418;17.962;2023-04-01T23:49:33;101933.72;;;-1.51;67.34
70833;BME280;58452;59.418;17.962;2023-04-01T23:52:14;101943.91;;;-1.54;67.60
70833;BME280;58452;59.418;17.962;2023-04-01T23:54:44;101939.00;;;-1.60;67.78
70833;BME280;58452;59.418;17.962;2023-04-01T23:57:17;101942.38;;;-1.61;67.82
